sensor_id;sensor_type;location;lat;lon;timestamp;P1;durP1;ratioP1;P2;durP2;ratioP2
18917;SDS011;9591;52.742;13.650;2023-11-22T00:00:40;12.07;;;4.33;;
18917;SDS011;9591;52.742;13.650;2023-11-22T00:03:37;9.40;;;4.60;;
18917;SDS011;9591;52.742;13.650;2023-11-22T00:06:24;8.83;;;4.07;;
18917;SDS011;9591;52.742;13.650;2023-11-22T00:09:13;11.83;;;4.60;;
18917;SDS011;9591;52.742;13.650;2023-11-22T00:12:12;9.40;;;4.13;;
18917;SDS011;9591;52.742;13.650;2023-11-22T00:14:59;8.77;;;4.53;;
18917;SDS011;9591;52.742;13.650;2023-11-22T00:17:51;9.77;;;3.90;;
18917;SDS011;9591;52.742;13.650;2023-11-22T00:20:39;10.63;;;4.10;;
18917;SDS011;9591;52.742;13.650;2023-11-22T00:23:29;12.37;;;4.83;;
18917;SDS011;9591;52.742;13.650;2023-11-22T00:26:16;9.33;;;4.47;;
18917;SDS011;9591;52.742;13.650;2023-11-22T00:29:14;7.43;;;3.47;;
18917;SDS011;9591;52.742;13.650;2023-11-22T00:32:12;9.40;;;4.63;;
18917;SDS011;9591;52.742;13.650;2023-11-22T00:34:59;9.67;;;4.73;;
18917;SDS011;9591;52.742;13.650;2023-11-22T00:37:46;12.47;;;4.43;;
18917;SDS011;9591;52.742;13.650;2023-11-22T00:40:39;7.37;;;4.17;;
18917;SDS011;9591;52.742;13.650;2023-11-22T00:43:26;9.70;;;4.63;;
18917;SDS011;9591;52.742;13.650;2023-11-22T00:46:18;10.27;;;4.17;;
18917;SDS011;9591;52.742;13.650;2023-11-22T00:49:06;7.60;;;3.93;;
18917;SDS011;9591;52.742;13.650;2023-11-22T00:51:55;8.10;;;4.60;;
18917;SDS011;9591;52.742;13.650;2023-11-22T00:54:47;8.83;;;4.17;;
18917;SDS011;9591;52.742;13.650;2023-11-22T00:57:38;9.40;;;4.73;;
18917;SDS011;9591;52.742;13.650;2023-11-22T01:00:25;11.70;;;4.50;;
18917;SDS011;9591;52.742;13.650;2023-11-22T01:03:16;8.87;;;4.70;;
18917;SDS011;9591;52.742;13.650;2023-11-22T01:06:05;6.27;;;4.23;;
18917;SDS011;9591;52.742;13.650;2023-11-22T01:08:53;6.03;;;4.00;;
18917;SDS011;9591;52.742;13.650;2023-11-22T01:11:43;9.70;;;5.03;;
18917;SDS011;9591;52.742;13.650;2023-11-22T01:14:31;7.53;;;4.30;;
18917;SDS011;9591;52.742;13.650;2023-11-22T01:17:23;11.40;;;4.27;;
18917;SDS011;9591;52.742;13.650;2023-11-22T01:20:12;6.27;;;4.07;;
18917;SDS011;9591;52.742;13.650;2023-11-22T01:23:02;10.43;;;4.63;;
18917;SDS011;9591;52.742;13.650;2023-11-22T01:25:51;6.73;;;4.17;;
18917;SDS011;9591;52.742;13.650;2023-11-22T01:28:42;7.23;;;3.90;;
18917;SDS011;9591;52.742;13.650;2023-11-22T01:31:30;6.67;;;3.90;;
18917;SDS011;9591;52.742;13.650;2023-11-22T01:34:39;10.97;;;4.83;;
18917;SDS011;9591;52.742;13.650;2023-11-22T01:37:30;15.43;;;5.30;;
18917;SDS011;9591;52.742;13.650;2023-11-22T01:40:19;7.67;;;4.13;;
18917;SDS011;9591;52.742;13.650;2023-11-22T01:43:07;7.57;;;4.50;;
18917;SDS011;9591;52.742;13.650;2023-11-22T01:45:57;10.60;;;4.27;;
18917;SDS011;9591;52.742;13.650;2023-11-22T01:48:51;12.03;;;4.60;;
18917;SDS011;9591;52.742;13.650;2023-11-22T01:51:39;7.17;;;4.40;;
18917;SDS011;9591;52.742;13.650;2023-11-22T01:54:35;6.80;;;4.30;;
18917;SDS011;9591;52.742;13.650;2023-11-22T01:57:24;7.47;;;4.67;;
18917;SDS011;9591;52.742;13.650;2023-11-22T02:00:13;8.73;;;5.00;;
18917;SDS011;9591;52.742;13.650;2023-11-22T02:03:03;6.67;;;4.43;;
18917;SDS011;9591;52.742;13.650;2023-11-22T02:05:51;9.03;;;4.67;;
18917;SDS011;9591;52.742;13.650;2023-11-22T02:08:41;8.47;;;4.83;;
18917;SDS011;9591;52.742;13.650;2023-11-22T02:11:37;10.20;;;5.07;;
18917;SDS011;9591;52.742;13.650;2023-11-22T02:14:24;7.17;;;4.40;;
18917;SDS011;9591;52.742;13.650;2023-11-22T02:17:13;7.80;;;4.63;;
18917;SDS011;9591;52.742;13.650;2023-11-22T02:20:17;8.27;;;4.97;;
18917;SDS011;9591;52.742;13.650;2023-11-22T02:23:10;5.73;;;4.13;;
18917;SDS011;9591;52.742;13.650;2023-11-22T02:25:57;10.93;;;5.37;;
18917;SDS011;9591;52.742;13.650;2023-11-22T02:28:46;9.10;;;5.33;;
18917;SDS011;9591;52.742;13.650;2023-11-22T02:31:34;11.13;;;4.47;;
18917;SDS011;9591;52.742;13.650;2023-11-22T02:34:24;9.07;;;4.97;;
18917;SDS011;9591;52.742;13.650;2023-11-22T02:37:14;11.23;;;5.73;;
18917;SDS011;9591;52.742;13.650;2023-11-22T02:40:04;11.13;;;4.87;;
18917;SDS011;9591;52.742;13.650;2023-11-22T02:42:57;8.73;;;4.40;;
18917;SDS011;9591;52.742;13.650;2023-11-22T02:45:46;8.40;;;4.67;;
18917;SDS011;9591;52.742;13.650;2023-11-22T02:48:49;9.37;;;4.43;;
18917;SDS011;9591;52.742;13.650;2023-11-22T02:51:41;10.57;;;4.97;;
18917;SDS011;9591;52.742;13.650;2023-11-22T02:54:34;13.97;;;4.83;;
18917;SDS011;9591;52.742;13.650;2023-11-22T02:57:25;7.83;;;4.13;;
18917;SDS011;9591;52.742;13.650;2023-11-22T03:00:16;7.47;;;4.77;;
18917;SDS011;9591;52.742;13.650;2023-11-22T03:03:06;8.93;;;5.03;;
18917;SDS011;9591;52.742;13.650;2023-11-22T03:05:58;7.03;;;4.60;;
18917;SDS011;9591;52.742;13.650;2023-11-22T03:08:46;7.33;;;4.27;;
18917;SDS011;9591;52.742;13.650;2023-11-22T03:11:33;7.80;;;4.40;;
18917;SDS011;9591;52.742;13.650;2023-11-22T03:14:26;7.13;;;4.90;;
18917;SDS011;9591;52.742;13.650;2023-11-22T03:17:15;7.53;;;4.87;;
18917;SDS011;9591;52.742;13.650;2023-11-22T03:20:05;9.87;;;4.50;;
18917;SDS011;9591;52.742;13.650;2023-11-22T03:22:54;11.33;;;4.57;;
18917;SDS011;9591;52.742;13.650;2023-11-22T03:25:47;8.87;;;5.10;;
18917;SDS011;9591;52.742;13.650;2023-11-22T03:28:42;10.27;;;4.53;;
18917;SDS011;9591;52.742;13.650;2023-11-22T03:31:33;9.70;;;5.30;;
18917;SDS011;9591;52.742;13.650;2023-11-22T03:34:22;10.30;;;5.07;;
18917;SDS011;9591;52.742;13.650;2023-11-22T03:37:14;11.17;;;5.57;;
18917;SDS011;9591;52.742;13.650;2023-11-22T03:40:03;7.80;;;5.03;;
18917;SDS011;9591;52.742;13.650;2023-11-22T03:42:55;10.93;;;5.03;;
18917;SDS011;9591;52.742;13.650;2023-11-22T03:45:44;13.20;;;4.73;;
18917;SDS011;9591;52.742;13.650;2023-11-22T03:48:34;9.37;;;5.27;;
18917;SDS011;9591;52.742;13.650;2023-11-22T03:51:22;6.70;;;4.60;;
18917;SDS011;9591;52.742;13.650;2023-11-22T03:54:10;9.03;;;5.13;;
18917;SDS011;9591;52.742;13.650;2023-11-22T03:56:58;11.03;;;4.87;;
18917;SDS011;9591;52.742;13.650;2023-11-22T03:59:49;9.87;;;5.50;;
18917;SDS011;9591;52.742;13.650;2023-11-22T04:02:38;8.83;;;5.60;;
18917;SDS011;9591;52.742;13.650;2023-11-22T04:05:35;17.33;;;4.87;;
18917;SDS011;9591;52.742;13.650;2023-11-22T04:08:23;9.50;;;4.83;;
18917;SDS011;9591;52.742;13.650;2023-11-22T04:11:10;9.63;;;5.20;;
18917;SDS011;9591;52.742;13.650;2023-11-22T04:13:57;8.50;;;4.80;;
18917;SDS011;9591;52.742;13.650;2023-11-22T04:16:50;9.93;;;4.57;;
18917;SDS011;9591;52.742;13.650;2023-11-22T04:19:37;10.87;;;5.43;;
18917;SDS011;9591;52.742;13.650;2023-11-22T04:22:28;8.33;;;5.00;;
18917;SDS011;9591;52.742;13.650;2023-11-22T04:25:15;11.70;;;5.17;;
18917;SDS011;9591;52.742;13.650;2023-11-22T04:28:03;14.13;;;5.57;;
18917;SDS011;9591;52.742;13.650;2023-11-22T04:30:56;8.40;;;4.87;;
18917;SDS011;9591;52.742;13.650;2023-11-22T04:33:43;10.57;;;6.03;;
18917;SDS011;9591;52.742;13.650;2023-11-22T04:36:32;9.90;;;5.40;;
18917;SDS011;9591;52.742;13.650;2023-11-22T04:39:30;6.73;;;4.97;;
18917;SDS011;9591;52.742;13.650;2023-11-22T04:42:19;12.07;;;5.20;;
18917;SDS011;9591;52.742;13.650;2023-11-22T04:45:09;9.10;;;5.03;;
18917;SDS011;9591;52.742;13.650;2023-11-22T04:48:04;7.90;;;4.87;;
18917;SDS011;9591;52.742;13.650;2023-11-22T04:50:55;8.57;;;4.97;;
18917;SDS011;9591;52.742;13.650;2023-11-22T04:53:42;7.97;;;4.63;;
18917;SDS011;9591;52.742;13.650;2023-11-22T04:56:35;9.60;;;4.83;;
18917;SDS011;9591;52.742;13.650;2023-11-22T04:59:22;9.63;;;5.07;;
18917;SDS011;9591;52.742;13.650;2023-11-22T05:02:09;7.40;;;4.40;;
18917;SDS011;9591;52.742;13.650;2023-11-22T05:04:57;9.17;;;5.03;;
18917;SDS011;9591;52.742;13.650;2023-11-22T05:07:46;9.50;;;4.73;;
18917;SDS011;9591;52.742;13.650;2023-11-22T05:10:33;8.00;;;4.50;;
18917;SDS011;9591;52.742;13.650;2023-11-22T05:13:22;8.63;;;4.13;;
18917;SDS011;9591;52.742;13.650;2023-11-22T05:16:09;8.37;;;4.80;;
18917;SDS011;9591;52.742;13.650;2023-11-22T05:18:56;7.73;;;5.07;;
18917;SDS011;9591;52.742;13.650;2023-11-22T05:21:43;9.03;;;5.30;;
18917;SDS011;9591;52.742;13.650;2023-11-22T05:24:34;7.60;;;5.07;;
18917;SDS011;9591;52.742;13.650;2023-11-22T05:27:24;10.17;;;6.03;;
18917;SDS011;9591;52.742;13.650;2023-11-22T05:30:15;11.90;;;5.83;;
18917;SDS011;9591;52.742;13.650;2023-11-22T05:33:03;9.67;;;5.03;;
18917;SDS011;9591;52.742;13.650;2023-11-22T05:35:50;10.73;;;5.67;;
18917;SDS011;9591;52.742;13.650;2023-11-22T05:38:37;12.60;;;5.70;;
18917;SDS011;9591;52.742;13.650;2023-11-22T05:41:28;12.33;;;5.23;;
18917;SDS011;9591;52.742;13.650;2023-11-22T05:44:17;10.07;;;5.93;;
18917;SDS011;9591;52.742;13.650;2023-11-22T05:47:06;8.40;;;4.60;;
18917;SDS011;9591;52.742;13.650;2023-11-22T05:49:53;8.07;;;5.13;;
18917;SDS011;9591;52.742;13.650;2023-11-22T05:52:44;11.87;;;5.37;;
18917;SDS011;9591;52.742;13.650;2023-11-22T05:55:33;11.03;;;5.00;;
18917;SDS011;9591;52.742;13.650;2023-11-22T05:58:23;9.40;;;5.87;;
18917;SDS011;9591;52.742;13.650;2023-11-22T06:01:14;10.23;;;5.87;;
18917;SDS011;9591;52.742;13.650;2023-11-22T06:04:05;11.57;;;5.23;;
18917;SDS011;9591;52.742;13.650;2023-11-22T06:06:57;9.87;;;5.80;;
18917;SDS011;9591;52.742;13.650;2023-11-22T06:09:44;11.93;;;4.97;;
18917;SDS011;9591;52.742;13.650;2023-11-22T06:12:33;18.67;;;6.37;;
18917;SDS011;9591;52.742;13.650;2023-11-22T06:15:20;19.57;;;7.37;;
18917;SDS011;9591;52.742;13.650;2023-11-22T06:18:07;17.23;;;6.30;;
18917;SDS011;9591;52.742;13.650;2023-11-22T06:21:01;17.60;;;7.63;;
18917;SDS011;9591;52.742;13.650;2023-11-22T06:23:51;16.33;;;7.30;;
18917;SDS011;9591;52.742;13.650;2023-11-22T06:26:39;12.17;;;6.50;;
18917;SDS011;9591;52.742;13.650;2023-11-22T06:29:26;12.73;;;6.87;;
18917;SDS011;9591;52.742;13.650;2023-11-22T06:32:13;12.90;;;6.20;;
18917;SDS011;9591;52.742;13.650;2023-11-22T06:35:02;13.80;;;6.83;;
18917;SDS011;9591;52.742;13.650;2023-11-22T06:37:54;11.77;;;5.90;;
18917;SDS011;9591;52.742;13.650;2023-11-22T06:40:41;10.27;;;6.43;;
18917;SDS011;9591;52.742;13.650;2023-11-22T06:43:30;10.27;;;5.70;;
18917;SDS011;9591;52.742;13.650;2023-11-22T06:46:20;10.77;;;6.10;;
18917;SDS011;9591;52.742;13.650;2023-11-22T06:49:08;10.07;;;5.80;;
18917;SDS011;9591;52.742;13.650;2023-11-22T06:52:08;12.10;;;5.77;;
18917;SDS011;9591;52.742;13.650;2023-11-22T06:55:04;10.83;;;5.23;;
18917;SDS011;9591;52.742;13.650;2023-11-22T06:57:53;11.37;;;4.93;;
18917;SDS011;9591;52.742;13.650;2023-11-22T07:00:44;12.30;;;6.53;;
18917;SDS011;9591;52.742;13.650;2023-11-22T07:03:32;13.70;;;6.20;;
18917;SDS011;9591;52.742;13.650;2023-11-22T07:06:37;10.40;;;6.20;;
18917;SDS011;9591;52.742;13.650;2023-11-22T07:09:25;15.47;;;6.63;;
18917;SDS011;9591;52.742;13.650;2023-11-22T07:15:25;15.90;;;6.60;;
18917;SDS011;9591;52.742;13.650;2023-11-22T07:18:13;18.73;;;7.30;;
18917;SDS011;9591;52.742;13.650;2023-11-22T07:21:01;16.70;;;7.03;;
18917;SDS011;9591;52.742;13.650;2023-11-22T07:23:48;13.47;;;6.43;;
18917;SDS011;9591;52.742;13.650;2023-11-22T07:26:38;14.77;;;6.83;;
18917;SDS011;9591;52.742;13.650;2023-11-22T07:29:31;19.80;;;7.73;;
18917;SDS011;9591;52.742;13.650;2023-11-22T07:32:18;20.00;;;6.93;;
18917;SDS011;9591;52.742;13.650;2023-11-22T07:35:06;14.50;;;6.03;;
18917;SDS011;9591;52.742;13.650;2023-11-22T07:37:59;18.47;;;7.07;;
18917;SDS011;9591;52.742;13.650;2023-11-22T07:40:53;16.30;;;7.30;;
18917;SDS011;9591;52.742;13.650;2023-11-22T07:43:42;12.30;;;5.93;;
18917;SDS011;9591;52.742;13.650;2023-11-22T07:46:32;10.67;;;6.87;;
18917;SDS011;9591;52.742;13.650;2023-11-22T07:49:21;12.10;;;6.33;;
18917;SDS011;9591;52.742;13.650;2023-11-22T07:52:11;12.23;;;6.93;;
18917;SDS011;9591;52.742;13.650;2023-11-22T07:55:02;11.27;;;7.03;;
18917;SDS011;9591;52.742;13.650;2023-11-22T07:57:51;19.63;;;7.83;;
18917;SDS011;9591;52.742;13.650;2023-11-22T08:00:41;15.13;;;6.77;;
18917;SDS011;9591;52.742;13.650;2023-11-22T08:03:34;12.60;;;6.30;;
18917;SDS011;9591;52.742;13.650;2023-11-22T08:06:21;15.63;;;6.87;;
18917;SDS011;9591;52.742;13.650;2023-11-22T08:09:11;12.50;;;7.17;;
18917;SDS011;9591;52.742;13.650;2023-11-22T08:12:02;15.50;;;6.60;;
18917;SDS011;9591;52.742;13.650;2023-11-22T08:14:52;10.40;;;6.17;;
18917;SDS011;9591;52.742;13.650;2023-11-22T08:21:01;16.17;;;6.77;;
18917;SDS011;9591;52.742;13.650;2023-11-22T08:23:50;11.07;;;6.57;;
18917;SDS011;9591;52.742;13.650;2023-11-22T08:26:38;13.83;;;6.83;;
18917;SDS011;9591;52.742;13.650;2023-11-22T08:29:28;17.80;;;7.60;;
18917;SDS011;9591;52.742;13.650;2023-11-22T08:32:17;16.00;;;6.53;;
18917;SDS011;9591;52.742;13.650;2023-11-22T08:35:09;17.03;;;7.43;;
18917;SDS011;9591;52.742;13.650;2023-11-22T08:37:58;15.10;;;7.60;;
18917;SDS011;9591;52.742;13.650;2023-11-22T08:40:48;12.20;;;6.33;;
18917;SDS011;9591;52.742;13.650;2023-11-22T08:43:38;25.10;;;7.40;;
18917;SDS011;9591;52.742;13.650;2023-11-22T08:46:28;11.80;;;6.87;;
18917;SDS011;9591;52.742;13.650;2023-11-22T08:49:21;15.03;;;7.50;;
18917;SDS011;9591;52.742;13.650;2023-11-22T08:52:13;15.50;;;6.63;;
18917;SDS011;9591;52.742;13.650;2023-11-22T08:55:05;13.77;;;6.53;;
18917;SDS011;9591;52.742;13.650;2023-11-22T08:57:54;15.37;;;7.23;;
18917;SDS011;9591;52.742;13.650;2023-11-22T09:00:45;13.70;;;6.10;;
18917;SDS011;9591;52.742;13.650;2023-11-22T09:03:35;12.23;;;6.10;;
18917;SDS011;9591;52.742;13.650;2023-11-22T09:06:30;10.17;;;6.60;;
18917;SDS011;9591;52.742;13.650;2023-11-22T09:09:20;12.20;;;6.70;;
18917;SDS011;9591;52.742;13.650;2023-11-22T09:12:17;11.13;;;5.83;;
18917;SDS011;9591;52.742;13.650;2023-11-22T09:15:06;12.73;;;6.90;;
18917;SDS011;9591;52.742;13.650;2023-11-22T09:17:59;12.83;;;6.30;;
18917;SDS011;9591;52.742;13.650;2023-11-22T09:20:47;11.13;;;5.90;;
18917;SDS011;9591;52.742;13.650;2023-11-22T09:23:36;13.77;;;6.00;;
18917;SDS011;9591;52.742;13.650;2023-11-22T09:26:25;11.20;;;5.77;;
18917;SDS011;9591;52.742;13.650;2023-11-22T09:29:18;13.80;;;5.80;;
18917;SDS011;9591;52.742;13.650;2023-11-22T09:32:12;12.83;;;6.20;;
18917;SDS011;9591;52.742;13.650;2023-11-22T09:35:02;13.07;;;5.97;;
18917;SDS011;9591;52.742;13.650;2023-11-22T09:37:50;9.90;;;5.60;;
18917;SDS011;9591;52.742;13.650;2023-11-22T09:40:39;8.67;;;4.63;;
18917;SDS011;9591;52.742;13.650;2023-11-22T09:43:33;11.80;;;5.37;;
18917;SDS011;9591;52.742;13.650;2023-11-22T09:46:22;10.27;;;6.00;;
18917;SDS011;9591;52.742;13.650;2023-11-22T09:49:11;11.80;;;6.33;;
18917;SDS011;9591;52.742;13.650;2023-11-22T09:52:09;11.40;;;5.43;;
18917;SDS011;9591;52.742;13.650;2023-11-22T09:55:05;9.83;;;5.17;;
18917;SDS011;9591;52.742;13.650;2023-11-22T09:57:53;10.53;;;5.57;;
18917;SDS011;9591;52.742;13.650;2023-11-22T10:00:41;10.53;;;5.57;;
18917;SDS011;9591;52.742;13.650;2023-11-22T10:03:31;12.30;;;5.30;;
18917;SDS011;9591;52.742;13.650;2023-11-22T10:06:21;13.00;;;5.77;;
18917;SDS011;9591;52.742;13.650;2023-11-22T10:09:12;9.80;;;5.47;;
18917;SDS011;9591;52.742;13.650;2023-11-22T10:12:01;14.17;;;5.50;;
18917;SDS011;9591;52.742;13.650;2023-11-22T10:14:53;10.77;;;5.13;;
18917;SDS011;9591;52.742;13.650;2023-11-22T10:17:47;9.03;;;5.37;;
18917;SDS011;9591;52.742;13.650;2023-11-22T10:20:48;9.07;;;5.33;;
18917;SDS011;9591;52.742;13.650;2023-11-22T10:23:38;10.40;;;5.30;;
18917;SDS011;9591;52.742;13.650;2023-11-22T10:30:09;10.40;;;5.67;;
18917;SDS011;9591;52.742;13.650;2023-11-22T10:32:59;16.83;;;4.87;;
18917;SDS011;9591;52.742;13.650;2023-11-22T10:35:49;13.90;;;4.73;;
18917;SDS011;9591;52.742;13.650;2023-11-22T10:38:40;9.53;;;6.13;;
18917;SDS011;9591;52.742;13.650;2023-11-22T10:41:35;7.87;;;5.30;;
18917;SDS011;9591;52.742;13.650;2023-11-22T10:44:25;10.07;;;5.17;;
18917;SDS011;9591;52.742;13.650;2023-11-22T10:47:13;11.07;;;5.23;;
18917;SDS011;9591;52.742;13.650;2023-11-22T10:50:03;8.03;;;5.17;;
18917;SDS011;9591;52.742;13.650;2023-11-22T10:53:00;13.10;;;5.27;;
18917;SDS011;9591;52.742;13.650;2023-11-22T10:55:56;8.17;;;4.87;;
18917;SDS011;9591;52.742;13.650;2023-11-22T10:58:56;10.50;;;5.10;;
18917;SDS011;9591;52.742;13.650;2023-11-22T11:01:47;7.90;;;4.90;;
18917;SDS011;9591;52.742;13.650;2023-11-22T11:04:39;13.63;;;5.20;;
18917;SDS011;9591;52.742;13.650;2023-11-22T11:07:37;9.13;;;5.00;;
18917;SDS011;9591;52.742;13.650;2023-11-22T11:10:31;13.40;;;5.10;;
18917;SDS011;9591;52.742;13.650;2023-11-22T11:13:18;9.50;;;4.80;;
18917;SDS011;9591;52.742;13.650;2023-11-22T11:16:06;8.13;;;5.20;;
18917;SDS011;9591;52.742;13.650;2023-11-22T11:18:57;7.27;;;4.30;;
18917;SDS011;9591;52.742;13.650;2023-11-22T11:21:45;7.13;;;4.40;;
18917;SDS011;9591;52.742;13.650;2023-11-22T11:24:39;11.83;;;5.00;;
18917;SDS011;9591;52.742;13.650;2023-11-22T11:27:35;8.37;;;4.87;;
18917;SDS011;9591;52.742;13.650;2023-11-22T11:33:53;8.53;;;4.10;;
18917;SDS011;9591;52.742;13.650;2023-11-22T11:36:41;7.63;;;4.63;;
18917;SDS011;9591;52.742;13.650;2023-11-22T11:39:32;8.23;;;5.20;;
18917;SDS011;9591;52.742;13.650;2023-11-22T11:42:24;8.13;;;4.70;;
18917;SDS011;9591;52.742;13.650;2023-11-22T11:45:14;10.53;;;4.83;;
18917;SDS011;9591;52.742;13.650;2023-11-22T11:48:02;9.53;;;4.93;;
18917;SDS011;9591;52.742;13.650;2023-11-22T11:50:52;8.47;;;4.80;;
18917;SDS011;9591;52.742;13.650;2023-11-22T11:53:42;10.10;;;5.70;;
18917;SDS011;9591;52.742;13.650;2023-11-22T11:56:29;10.20;;;5.43;;
18917;SDS011;9591;52.742;13.650;2023-11-22T11:59:20;9.10;;;4.80;;
18917;SDS011;9591;52.742;13.650;2023-11-22T12:02:14;10.67;;;5.00;;
18917;SDS011;9591;52.742;13.650;2023-11-22T12:05:03;7.53;;;4.40;;
18917;SDS011;9591;52.742;13.650;2023-11-22T12:07:55;8.27;;;4.50;;
18917;SDS011;9591;52.742;13.650;2023-11-22T12:10:44;8.63;;;4.70;;
18917;SDS011;9591;52.742;13.650;2023-11-22T12:13:37;11.80;;;5.37;;
18917;SDS011;9591;52.742;13.650;2023-11-22T12:16:34;10.43;;;5.43;;
18917;SDS011;9591;52.742;13.650;2023-11-22T12:19:28;11.37;;;4.50;;
18917;SDS011;9591;52.742;13.650;2023-11-22T12:22:17;10.57;;;4.77;;
18917;SDS011;9591;52.742;13.650;2023-11-22T12:25:07;6.63;;;4.57;;
18917;SDS011;9591;52.742;13.650;2023-11-22T12:27:59;8.30;;;4.87;;
18917;SDS011;9591;52.742;13.650;2023-11-22T12:30:46;7.70;;;4.70;;
18917;SDS011;9591;52.742;13.650;2023-11-22T12:33:36;9.63;;;4.90;;
18917;SDS011;9591;52.742;13.650;2023-11-22T12:36:27;7.87;;;4.50;;
18917;SDS011;9591;52.742;13.650;2023-11-22T12:39:16;7.90;;;4.17;;
18917;SDS011;9591;52.742;13.650;2023-11-22T12:42:05;9.40;;;4.93;;
18917;SDS011;9591;52.742;13.650;2023-11-22T12:44:57;7.20;;;4.30;;
18917;SDS011;9591;52.742;13.650;2023-11-22T12:47:44;9.77;;;4.27;;
18917;SDS011;9591;52.742;13.650;2023-11-22T12:50:37;7.77;;;4.90;;
18917;SDS011;9591;52.742;13.650;2023-11-22T12:53:34;6.77;;;4.37;;
18917;SDS011;9591;52.742;13.650;2023-11-22T12:56:22;6.90;;;4.30;;
18917;SDS011;9591;52.742;13.650;2023-11-22T12:59:14;11.80;;;4.73;;
18917;SDS011;9591;52.742;13.650;2023-11-22T13:02:06;6.93;;;4.60;;
18917;SDS011;9591;52.742;13.650;2023-11-22T13:04:54;5.70;;;4.13;;
18917;SDS011;9591;52.742;13.650;2023-11-22T13:07:42;6.77;;;4.47;;
18917;SDS011;9591;52.742;13.650;2023-11-22T13:10:33;7.63;;;4.90;;
18917;SDS011;9591;52.742;13.650;2023-11-22T13:13:24;8.10;;;4.23;;
18917;SDS011;9591;52.742;13.650;2023-11-22T13:16:14;8.07;;;4.43;;
18917;SDS011;9591;52.742;13.650;2023-11-22T13:19:10;5.97;;;4.13;;
18917;SDS011;9591;52.742;13.650;2023-11-22T13:21:57;7.17;;;4.60;;
18917;SDS011;9591;52.742;13.650;2023-11-22T13:24:47;6.87;;;4.17;;
18917;SDS011;9591;52.742;13.650;2023-11-22T13:27:46;10.00;;;4.40;;
18917;SDS011;9591;52.742;13.650;2023-11-22T13:30:43;11.77;;;4.20;;
18917;SDS011;9591;52.742;13.650;2023-11-22T13:33:37;7.13;;;4.10;;
18917;SDS011;9591;52.742;13.650;2023-11-22T13:36:29;6.80;;;3.97;;
18917;SDS011;9591;52.742;13.650;2023-11-22T13:39:46;8.83;;;4.10;;
18917;SDS011;9591;52.742;13.650;2023-11-22T13:42:35;8.97;;;4.50;;
18917;SDS011;9591;52.742;13.650;2023-11-22T13:45:36;6.23;;;4.37;;
18917;SDS011;9591;52.742;13.650;2023-11-22T13:48:27;8.83;;;4.53;;
18917;SDS011;9591;52.742;13.650;2023-11-22T13:51:22;8.23;;;4.83;;
18917;SDS011;9591;52.742;13.650;2023-11-22T13:54:12;8.77;;;4.43;;
18917;SDS011;9591;52.742;13.650;2023-11-22T13:57:06;8.37;;;4.43;;
18917;SDS011;9591;52.742;13.650;2023-11-22T13:59:57;6.87;;;4.20;;
18917;SDS011;9591;52.742;13.650;2023-11-22T14:02:48;7.60;;;4.50;;
18917;SDS011;9591;52.742;13.650;2023-11-22T14:05:41;6.60;;;4.27;;
18917;SDS011;9591;52.742;13.650;2023-11-22T14:08:28;8.93;;;4.83;;
18917;SDS011;9591;52.742;13.650;2023-11-22T14:11:22;8.70;;;5.00;;
18917;SDS011;9591;52.742;13.650;2023-11-22T14:14:11;6.50;;;4.33;;
18917;SDS011;9591;52.742;13.650;2023-11-22T14:17:06;7.13;;;4.30;;
18917;SDS011;9591;52.742;13.650;2023-11-22T14:19:56;7.90;;;4.13;;
18917;SDS011;9591;52.742;13.650;2023-11-22T14:22:43;6.87;;;3.97;;
18917;SDS011;9591;52.742;13.650;2023-11-22T14:25:30;8.33;;;4.27;;
18917;SDS011;9591;52.742;13.650;2023-11-22T14:28:24;8.53;;;4.80;;
18917;SDS011;9591;52.742;13.650;2023-11-22T14:31:11;8.77;;;4.97;;
18917;SDS011;9591;52.742;13.650;2023-11-22T14:34:00;6.23;;;4.00;;
18917;SDS011;9591;52.742;13.650;2023-11-22T14:36:54;8.10;;;4.60;;
18917;SDS011;9591;52.742;13.650;2023-11-22T14:39:48;7.97;;;4.90;;
18917;SDS011;9591;52.742;13.650;2023-11-22T14:42:35;8.83;;;5.00;;
18917;SDS011;9591;52.742;13.650;2023-11-22T14:45:25;9.23;;;4.67;;
18917;SDS011;9591;52.742;13.650;2023-11-22T14:48:12;6.93;;;4.57;;
18917;SDS011;9591;52.742;13.650;2023-11-22T14:51:03;9.57;;;5.23;;
18917;SDS011;9591;52.742;13.650;2023-11-22T14:57:13;9.43;;;4.57;;
18917;SDS011;9591;52.742;13.650;2023-11-22T15:00:03;14.40;;;5.37;;
18917;SDS011;9591;52.742;13.650;2023-11-22T15:02:55;8.30;;;5.40;;
18917;SDS011;9591;52.742;13.650;2023-11-22T15:05:47;9.13;;;5.30;;
18917;SDS011;9591;52.742;13.650;2023-11-22T15:08:34;11.70;;;5.03;;
18917;SDS011;9591;52.742;13.650;2023-11-22T15:11:27;7.23;;;5.00;;
18917;SDS011;9591;52.742;13.650;2023-11-22T15:14:15;7.97;;;4.83;;
18917;SDS011;9591;52.742;13.650;2023-11-22T15:17:05;8.70;;;5.67;;
18917;SDS011;9591;52.742;13.650;2023-11-22T15:19:56;10.40;;;5.17;;
18917;SDS011;9591;52.742;13.650;2023-11-22T15:22:43;8.03;;;5.13;;
18917;SDS011;9591;52.742;13.650;2023-11-22T15:25:35;8.37;;;4.87;;
18917;SDS011;9591;52.742;13.650;2023-11-22T15:28:23;8.27;;;4.83;;
18917;SDS011;9591;52.742;13.650;2023-11-22T15:31:14;7.93;;;5.03;;
18917;SDS011;9591;52.742;13.650;2023-11-22T15:34:14;7.37;;;4.33;;
18917;SDS011;9591;52.742;13.650;2023-11-22T15:37:06;9.47;;;5.13;;
18917;SDS011;9591;52.742;13.650;2023-11-22T15:39:56;8.10;;;4.77;;
18917;SDS011;9591;52.742;13.650;2023-11-22T15:42:47;9.17;;;4.73;;
18917;SDS011;9591;52.742;13.650;2023-11-22T15:45:42;7.80;;;5.00;;
18917;SDS011;9591;52.742;13.650;2023-11-22T15:48:29;8.13;;;4.90;;
18917;SDS011;9591;52.742;13.650;2023-11-22T15:51:17;7.33;;;4.40;;
18917;SDS011;9591;52.742;13.650;2023-11-22T15:54:05;7.63;;;4.80;;
18917;SDS011;9591;52.742;13.650;2023-11-22T15:56:54;10.90;;;4.87;;
18917;SDS011;9591;52.742;13.650;2023-11-22T15:59:41;7.93;;;5.20;;
18917;SDS011;9591;52.742;13.650;2023-11-22T16:02:34;7.63;;;5.20;;
18917;SDS011;9591;52.742;13.650;2023-11-22T16:05:24;10.80;;;5.57;;
18917;SDS011;9591;52.742;13.650;2023-11-22T16:08:15;10.40;;;5.83;;
18917;SDS011;9591;52.742;13.650;2023-11-22T16:11:02;15.30;;;5.77;;
18917;SDS011;9591;52.742;13.650;2023-11-22T16:13:49;8.73;;;4.93;;
18917;SDS011;9591;52.742;13.650;2023-11-22T16:16:38;9.17;;;4.77;;
18917;SDS011;9591;52.742;13.650;2023-11-22T16:19:31;14.80;;;6.27;;
18917;SDS011;9591;52.742;13.650;2023-11-22T16:22:30;11.67;;;5.80;;
18917;SDS011;9591;52.742;13.650;2023-11-22T16:25:25;10.43;;;5.43;;
18917;SDS011;9591;52.742;13.650;2023-11-22T16:28:14;12.23;;;5.60;;
18917;SDS011;9591;52.742;13.650;2023-11-22T16:31:03;12.20;;;5.97;;
18917;SDS011;9591;52.742;13.650;2023-11-22T16:33:53;11.63;;;5.93;;
18917;SDS011;9591;52.742;13.650;2023-11-22T16:36:47;14.77;;;6.10;;
18917;SDS011;9591;52.742;13.650;2023-11-22T16:39:41;11.03;;;5.70;;
18917;SDS011;9591;52.742;13.650;2023-11-22T16:42:37;15.80;;;5.73;;
18917;SDS011;9591;52.742;13.650;2023-11-22T16:45:30;17.70;;;6.03;;
18917;SDS011;9591;52.742;13.650;2023-11-22T16:48:17;9.57;;;5.37;;
18917;SDS011;9591;52.742;13.650;2023-11-22T16:51:10;8.77;;;5.50;;
18917;SDS011;9591;52.742;13.650;2023-11-22T16:54:04;9.50;;;4.90;;
18917;SDS011;9591;52.742;13.650;2023-11-22T16:57:00;11.67;;;5.20;;
18917;SDS011;9591;52.742;13.650;2023-11-22T16:59:50;12.50;;;5.77;;
18917;SDS011;9591;52.742;13.650;2023-11-22T17:02:41;10.17;;;5.40;;
18917;SDS011;9591;52.742;13.650;2023-11-22T17:05:30;11.87;;;4.83;;
18917;SDS011;9591;52.742;13.650;2023-11-22T17:08:23;12.00;;;5.20;;
18917;SDS011;9591;52.742;13.650;2023-11-22T17:11:16;11.57;;;5.67;;
18917;SDS011;9591;52.742;13.650;2023-11-22T17:14:05;12.87;;;6.00;;
18917;SDS011;9591;52.742;13.650;2023-11-22T17:16:54;9.00;;;5.27;;